createdAt,value
2023-01-17T00:00:16.110Z,86.71
2023-01-17T00:01:16.015Z,86.60
2023-01-17T00:02:16.108Z,86.96
2023-01-17T00:03:16.018Z,87.06
2023-01-17T00:04:16.017Z,86.54
2023-01-17T00:05:15.967Z,86.60
2023-01-17T00:06:15.950Z,87.02
2023-01-17T00:07:15.953Z,87.68
2023-01-17T00:08:15.931Z,87.47
2023-01-17T00:09:15.914Z,87.37
2023-01-17T00:10:15.921Z,87.47
2023-01-17T00:11:15.900Z,87.27
2023-01-17T00:12:15.890Z,87.27
2023-01-17T00:13:15.863Z,87.37
2023-01-17T00:14:15.847Z,87.27
2023-01-17T00:15:15.836Z,87.57
2023-01-17T00:16:15.864Z,87.57
2023-01-17T00:17:15.821Z,87.68
2023-01-17T00:18:15.795Z,87.78
2023-01-17T00:19:15.801Z,86.75
2023-01-17T00:20:15.778Z,86.75
2023-01-17T00:21:15.777Z,86.96
2023-01-17T00:22:15.758Z,87.37
2023-01-17T00:23:15.728Z,87.27
2023-01-17T00:24:15.725Z,87.06
2023-01-17T00:25:15.698Z,86.96
2023-01-17T00:26:15.704Z,87.16
2023-01-17T00:27:15.695Z,86.96
2023-01-17T00:28:15.672Z,87.16
2023-01-17T00:29:15.648Z,87.37
2023-01-17T00:30:15.636Z,87.72
2023-01-17T00:31:15.710Z,87.82
2023-01-17T00:32:15.632Z,87.41
2023-01-17T00:33:15.602Z,87.20
2023-01-17T00:34:15.584Z,86.99
2023-01-17T00:35:15.589Z,86.75
2023-01-17T00:36:15.563Z,87.10
2023-01-17T00:37:15.544Z,87.20
2023-01-17T00:38:15.548Z,87.30
2023-01-17T00:39:15.520Z,87.30
2023-01-17T00:40:15.513Z,86.89
2023-01-17T00:41:15.495Z,87.20
2023-01-17T00:42:15.480Z,86.89
2023-01-17T00:43:15.482Z,86.27
2023-01-17T00:44:15.450Z,86.68
2023-01-17T00:45:15.437Z,86.37
2023-01-17T00:46:15.459Z,86.37
2023-01-17T00:47:15.418Z,86.27
2023-01-17T00:48:15.414Z,86.47
2023-01-17T00:49:15.388Z,86.58
2023-01-17T00:50:15.374Z,86.47
2023-01-17T00:51:15.381Z,86.47
2023-01-17T00:52:15.365Z,86.37
2023-01-17T00:53:15.346Z,86.07
2023-01-17T00:54:16.951Z,86.37
2023-01-17T00:55:15.311Z,85.65
2023-01-17T00:56:15.293Z,85.75
2023-01-17T00:57:15.280Z,86.07
2023-01-17T00:58:15.288Z,85.55
2023-01-17T00:59:15.257Z,85.86
2023-01-17T01:00:15.247Z,85.86
2023-01-17T01:01:15.355Z,85.34
2023-01-17T01:02:15.260Z,85.34
2023-01-17T01:03:15.239Z,85.03
2023-01-17T01:04:15.193Z,84.51
2023-01-17T01:05:15.180Z,84.30
2023-01-17T01:06:15.166Z,83.89
2023-01-17T01:07:15.172Z,83.99
2023-01-17T01:08:15.152Z,84.30
2023-01-17T01:09:15.126Z,84.92
2023-01-17T01:10:15.114Z,84.41
2023-01-17T01:11:15.101Z,83.78
2023-01-17T01:12:15.092Z,83.26
2023-01-17T01:13:15.088Z,83.26
2023-01-17T01:14:15.082Z,83.37
2023-01-17T01:15:15.045Z,83.99
2023-01-17T01:16:15.049Z,83.99
2023-01-17T01:17:15.027Z,84.34
2023-01-17T01:18:15.025Z,84.13
2023-01-17T01:19:14.996Z,84.44
2023-01-17T01:20:14.990Z,83.93
2023-01-17T01:21:14.972Z,83.41
2023-01-17T01:22:14.962Z,83.51
2023-01-17T01:23:14.982Z,82.58
2023-01-17T01:24:14.931Z,82.23
2023-01-17T01:25:14.916Z,82.65
2023-01-17T01:26:14.906Z,82.48
2023-01-17T01:27:14.896Z,82.44
2023-01-17T01:28:14.924Z,82.58
2023-01-17T01:29:14.867Z,82.48
2023-01-17T01:30:14.854Z,82.89
2023-01-17T01:31:14.886Z,82.89
2023-01-17T01:32:14.831Z,82.37
2023-01-17T01:33:14.836Z,82.58
2023-01-17T01:34:14.809Z,82.27
2023-01-17T01:35:14.795Z,82.17
2023-01-17T01:36:14.786Z,82.27
2023-01-17T01:37:14.775Z,82.17
2023-01-17T01:38:14.779Z,81.85
2023-01-17T01:39:14.764Z,82.06
2023-01-17T01:40:14.732Z,82.27
2023-01-17T01:41:14.716Z,81.75
2023-01-17T01:42:14.702Z,81.44
2023-01-17T01:43:14.700Z,81.96
2023-01-17T01:44:14.691Z,82.06
2023-01-17T01:45:14.666Z,82.06
2023-01-17T01:46:14.660Z,81.75
2023-01-17T01:47:14.657Z,82.06
2023-01-17T01:48:14.639Z,82.27
2023-01-17T01:49:14.625Z,82.27
2023-01-17T01:50:14.598Z,82.68
2023-01-17T01:51:14.589Z,82.51
2023-01-17T01:52:14.573Z,82.62
2023-01-17T01:53:14.562Z,82.10
2023-01-17T01:54:14.564Z,81.99
2023-01-17T01:55:14.572Z,81.58
2023-01-17T01:56:14.526Z,81.16
2023-01-17T01:57:14.511Z,81.48
2023-01-17T01:58:14.500Z,81.89
2023-01-17T01:59:14.497Z,82.51
2023-01-17T02:00:14.479Z,82.62
2023-01-17T02:01:14.571Z,82.24
2023-01-17T02:02:14.448Z,82.45
2023-01-17T02:03:14.444Z,82.55
2023-01-17T02:04:14.443Z,82.03
2023-01-17T02:05:14.408Z,81.62
2023-01-17T02:06:14.393Z,81.72
2023-01-17T02:07:14.382Z,82.03
2023-01-17T02:08:14.370Z,82.14
2023-01-17T02:09:14.369Z,82.03
2023-01-17T02:10:14.347Z,82.03
2023-01-17T02:11:14.357Z,82.24
2023-01-17T02:12:14.320Z,82.03
2023-01-17T02:13:14.308Z,82.03
2023-01-17T02:14:14.313Z,81.51
2023-01-17T02:15:14.283Z,81.30
2023-01-17T02:16:14.387Z,81.62
2023-01-17T02:17:14.266Z,82.18
2023-01-17T02:18:14.247Z,81.72
2023-01-17T02:19:14.251Z,81.93
2023-01-17T02:20:14.248Z,81.51
2023-01-17T02:21:14.208Z,81.72
2023-01-17T02:22:14.198Z,82.07
2023-01-17T02:23:14.193Z,81.87
2023-01-17T02:24:14.205Z,82.18
2023-01-17T02:25:14.159Z,82.18
2023-01-17T02:26:14.141Z,82.18
2023-01-17T02:27:14.153Z,81.56
2023-01-17T02:28:14.116Z,81.66
2023-01-17T02:29:14.119Z,81.66
2023-01-17T02:30:14.105Z,81.66
2023-01-17T02:31:14.146Z,81.35
2023-01-17T02:32:14.063Z,80.93
2023-01-17T02:33:14.054Z,80.93
2023-01-17T02:34:14.058Z,80.93
2023-01-17T02:35:14.030Z,81.04
2023-01-17T02:36:14.016Z,81.24
2023-01-17T02:37:14.007Z,81.66
2023-01-17T02:38:13.995Z,81.45
2023-01-17T02:39:14.014Z,81.24
2023-01-17T02:40:13.966Z,81.24
2023-01-17T02:41:13.955Z,81.66
2023-01-17T02:42:13.939Z,81.45
2023-01-17T02:43:13.950Z,81.56
2023-01-17T02:44:13.915Z,81.76
2023-01-17T02:45:13.922Z,81.66
2023-01-17T02:46:13.901Z,81.45
2023-01-17T02:47:13.879Z,81.45
2023-01-17T02:48:13.870Z,81.76
2023-01-17T02:49:13.859Z,81.45
2023-01-17T02:50:13.865Z,81.24
2023-01-17T02:51:13.836Z,81.04
2023-01-17T02:52:13.828Z,81.45
2023-01-17T02:53:13.803Z,81.76
2023-01-17T02:54:13.792Z,81.66
2023-01-17T02:55:13.797Z,81.35
2023-01-17T02:56:13.770Z,81.24
2023-01-17T02:57:13.756Z,80.93
2023-01-17T02:58:13.745Z,80.52
2023-01-17T02:59:13.755Z,80.83
2023-01-17T03:00:13.737Z,80.73
2023-01-17T03:01:13.817Z,80.93
2023-01-17T03:02:13.759Z,81.24
2023-01-17T03:03:13.684Z,81.56
2023-01-17T03:04:13.673Z,81.66
2023-01-17T03:05:13.668Z,81.24
2023-01-17T03:06:13.643Z,80.41
2023-01-17T03:07:13.634Z,80.93
2023-01-17T03:08:13.616Z,80.73
2023-01-17T03:09:13.601Z,80.83
2023-01-17T03:10:13.605Z,80.73
2023-01-17T03:11:13.582Z,80.10
2023-01-17T03:12:13.592Z,79.90
2023-01-17T03:13:13.559Z,80.10
2023-01-17T03:14:13.538Z,79.90
2023-01-17T03:15:13.562Z,80.10
2023-01-17T03:16:13.554Z,80.41
2023-01-17T03:17:13.505Z,80.73
2023-01-17T03:18:13.496Z,80.21
2023-01-17T03:19:13.491Z,79.79
2023-01-17T03:20:13.532Z,79.79
2023-01-17T03:21:13.453Z,79.58
2023-01-17T03:22:13.453Z,79.79
2023-01-17T03:23:13.427Z,79.69
2023-01-17T03:24:13.412Z,79.69
2023-01-17T03:25:13.420Z,79.69
2023-01-17T03:26:13.408Z,80.00
2023-01-17T03:27:13.380Z,80.00
2023-01-17T03:28:13.372Z,79.69
2023-01-17T03:29:13.355Z,79.90
2023-01-17T03:30:13.354Z,79.79
2023-01-17T03:31:13.349Z,79.38
2023-01-17T03:32:13.318Z,79.58
2023-01-17T03:33:13.302Z,79.90
2023-01-17T03:34:13.288Z,79.48
2023-01-17T03:35:13.293Z,79.38
2023-01-17T03:36:13.268Z,79.38
2023-01-17T03:37:13.258Z,79.58
2023-01-17T03:38:13.237Z,79.79
2023-01-17T03:39:13.233Z,79.27
2023-01-17T03:40:13.252Z,79.06
2023-01-17T03:41:13.206Z,79.48
2023-01-17T03:42:13.189Z,79.48
2023-01-17T03:43:13.176Z,79.38
2023-01-17T03:44:13.166Z,79.17
2023-01-17T03:45:14.174Z,79.79
2023-01-17T03:46:13.154Z,80.00
2023-01-17T03:47:13.167Z,79.90
2023-01-17T03:48:13.135Z,80.35
2023-01-17T03:49:13.103Z,80.62
2023-01-17T03:50:13.113Z,80.87
2023-01-17T03:51:13.079Z,80.76
2023-01-17T03:52:13.083Z,80.55
2023-01-17T03:53:13.053Z,80.45
2023-01-17T03:54:13.035Z,80.55
2023-01-17T03:55:13.028Z,80.87
2023-01-17T03:56:13.035Z,80.21
2023-01-17T03:57:13.006Z,80.35
2023-01-17T03:58:13.004Z,80.00
2023-01-17T03:59:13.341Z,80.35
2023-01-17T04:00:12.987Z,80.62
2023-01-17T04:01:13.053Z,80.76
2023-01-17T04:02:13.039Z,80.45
2023-01-17T04:03:12.963Z,80.14
2023-01-17T04:04:12.918Z,80.45
2023-01-17T04:05:12.909Z,80.55
2023-01-17T04:06:12.918Z,80.35
2023-01-17T04:07:12.878Z,80.66
2023-01-17T04:08:12.866Z,80.66
2023-01-17T04:09:12.855Z,80.55
2023-01-17T04:10:12.840Z,81.07
2023-01-17T04:11:12.852Z,81.18
2023-01-17T04:12:12.815Z,80.87
2023-01-17T04:13:12.804Z,80.76
2023-01-17T04:14:12.793Z,81.18
2023-01-17T04:15:12.781Z,81.28
2023-01-17T04:16:12.807Z,81.38
2023-01-17T04:17:12.757Z,81.49
2023-01-17T04:18:12.747Z,81.59
2023-01-17T04:19:12.776Z,81.80
2023-01-17T04:20:12.715Z,81.38
2023-01-17T04:21:12.727Z,81.49
2023-01-17T04:22:12.696Z,80.97
2023-01-17T04:23:12.683Z,81.07
2023-01-17T04:24:12.661Z,81.49
2023-01-17T04:25:12.652Z,81.38
2023-01-17T04:26:12.659Z,81.80
2023-01-17T04:27:12.627Z,81.59
2023-01-17T04:28:12.660Z,81.49
2023-01-17T04:29:12.612Z,81.70
2023-01-17T04:30:12.610Z,81.90
2023-01-17T04:31:12.782Z,81.80
2023-01-17T04:32:12.583Z,81.90
2023-01-17T04:33:12.563Z,82.01
2023-01-17T04:34:12.550Z,82.21
2023-01-17T04:35:12.547Z,82.42
2023-01-17T04:36:12.551Z,82.73
2023-01-17T04:37:12.512Z,82.63
2023-01-17T04:38:12.489Z,82.73
2023-01-17T04:39:12.483Z,82.98
2023-01-17T04:40:12.472Z,83.08
2023-01-17T04:41:12.470Z,83.29
2023-01-17T04:42:12.443Z,83.08
2023-01-17T04:43:12.431Z,82.87
2023-01-17T04:44:12.419Z,83.04
2023-01-17T04:45:12.413Z,83.60
2023-01-17T04:46:12.528Z,83.18
2023-01-17T04:47:12.394Z,83.29
2023-01-17T04:48:12.380Z,83.39
2023-01-17T04:49:12.353Z,83.39
2023-01-17T04:50:12.348Z,83.39
2023-01-17T04:51:12.375Z,83.18
2023-01-17T04:52:12.316Z,83.39
2023-01-17T04:53:12.309Z,83.60
2023-01-17T04:54:12.301Z,83.70
2023-01-17T04:55:12.286Z,83.70
2023-01-17T04:56:12.288Z,83.70
2023-01-17T04:57:12.260Z,83.70
2023-01-17T04:58:12.241Z,83.70
2023-01-17T04:59:12.233Z,83.91
2023-01-17T05:00:12.233Z,84.33
2023-01-17T05:01:12.330Z,84.33
2023-01-17T05:02:12.213Z,83.60
2023-01-17T05:03:12.188Z,83.81
2023-01-17T05:04:12.182Z,83.91
2023-01-17T05:05:12.161Z,83.81
2023-01-17T05:06:12.148Z,83.70
2023-01-17T05:07:12.174Z,83.81
2023-01-17T05:08:12.128Z,84.01
2023-01-17T05:09:12.114Z,84.01
2023-01-17T05:10:12.093Z,84.12
2023-01-17T05:11:12.103Z,84.43
2023-01-17T05:12:12.091Z,84.33
2023-01-17T05:13:12.058Z,84.33
2023-01-17T05:14:12.050Z,84.64
2023-01-17T05:15:12.055Z,84.33
2023-01-17T05:16:12.041Z,84.33
2023-01-17T05:17:12.047Z,84.43
2023-01-17T05:18:12.018Z,84.47
2023-01-17T05:19:11.983Z,84.78
2023-01-17T05:20:11.972Z,84.74
2023-01-17T05:21:11.956Z,84.89
2023-01-17T05:22:11.963Z,85.10
2023-01-17T05:23:11.984Z,85.10
2023-01-17T05:24:11.935Z,85.30
2023-01-17T05:25:11.909Z,85.51
2023-01-17T05:26:11.895Z,85.72
2023-01-17T05:27:11.896Z,85.24
2023-01-17T05:28:11.876Z,85.44
2023-01-17T05:29:11.868Z,85.65
2023-01-17T05:30:11.842Z,85.75
2023-01-17T05:31:11.913Z,85.96
2023-01-17T05:32:11.851Z,85.96
2023-01-17T05:33:11.830Z,86.11
2023-01-17T05:34:11.805Z,86.21
2023-01-17T05:35:11.787Z,86.52
2023-01-17T05:36:11.787Z,86.73
2023-01-17T05:37:11.783Z,86.94
2023-01-17T05:38:11.752Z,87.15
2023-01-17T05:39:11.773Z,87.35
2023-01-17T05:40:11.730Z,87.25
2023-01-17T05:41:11.734Z,87.35
2023-01-17T05:42:11.726Z,87.46
2023-01-17T05:43:11.692Z,87.60
2023-01-17T05:44:11.673Z,87.81
2023-01-17T05:45:11.658Z,87.92
2023-01-17T05:46:11.706Z,87.92
2023-01-17T05:47:11.661Z,88.43
2023-01-17T05:48:11.619Z,88.43
2023-01-17T05:49:11.606Z,88.64
2023-01-17T05:50:11.598Z,88.68
2023-01-17T05:51:11.598Z,88.79
2023-01-17T05:52:11.583Z,89.00
2023-01-17T05:53:11.782Z,89.20
2023-01-17T05:54:11.543Z,89.31
2023-01-17T05:55:11.556Z,89.41
2023-01-17T05:56:11.527Z,89.41
2023-01-17T05:57:11.544Z,89.41
2023-01-17T05:58:11.496Z,89.52
2023-01-17T05:59:14.001Z,89.62
2023-01-17T06:00:11.480Z,89.73
2023-01-17T06:01:11.481Z,89.87
2023-01-17T06:02:11.481Z,89.98
2023-01-17T06:03:11.434Z,90.08
2023-01-17T06:04:11.433Z,90.08
2023-01-17T06:05:11.408Z,90.19
2023-01-17T06:06:11.391Z,90.39
2023-01-17T06:07:11.380Z,90.39
2023-01-17T06:08:11.381Z,90.39
2023-01-17T06:09:11.352Z,90.39
2023-01-17T06:10:11.343Z,90.39
2023-01-17T06:11:11.358Z,90.60
2023-01-17T06:12:11.319Z,90.70
2023-01-17T06:13:11.322Z,90.70
2023-01-17T06:14:11.304Z,90.70
2023-01-17T06:15:11.277Z,90.60
2023-01-17T06:16:11.432Z,90.60
2023-01-17T06:17:11.251Z,90.70
2023-01-17T06:18:11.258Z,90.70
2023-01-17T06:19:11.227Z,90.70
2023-01-17T06:20:11.217Z,90.70
2023-01-17T06:21:11.204Z,90.70
2023-01-17T06:22:11.196Z,90.81
2023-01-17T06:23:11.187Z,90.91
2023-01-17T06:24:11.165Z,91.12
2023-01-17T06:25:11.159Z,91.12
2023-01-17T06:26:11.144Z,91.02
2023-01-17T06:27:11.166Z,91.02
2023-01-17T06:28:11.127Z,90.91
2023-01-17T06:29:11.102Z,90.81
2023-01-17T06:30:11.104Z,90.70
2023-01-17T06:31:11.138Z,90.60
2023-01-17T06:32:11.088Z,90.81
2023-01-17T06:33:11.060Z,91.12
2023-01-17T06:34:11.041Z,91.43
2023-01-17T06:35:11.025Z,91.64
2023-01-17T06:36:11.016Z,91.64
2023-01-17T06:37:10.998Z,91.53
2023-01-17T06:38:11.004Z,91.53
2023-01-17T06:39:11.003Z,91.64
2023-01-17T06:40:10.958Z,91.89
2023-01-17T06:41:10.957Z,91.89
2023-01-17T06:42:10.933Z,91.64
2023-01-17T06:43:10.963Z,91.89
2023-01-17T06:44:10.915Z,92.00
2023-01-17T06:45:10.901Z,92.00
2023-01-17T06:46:10.897Z,92.21
2023-01-17T06:47:10.869Z,92.10
2023-01-17T06:48:10.877Z,92.31
2023-01-17T06:49:10.844Z,92.41
2023-01-17T06:50:10.833Z,92.62
2023-01-17T06:51:10.828Z,92.72
2023-01-17T06:52:10.803Z,92.83
2023-01-17T06:53:10.805Z,92.93
2023-01-17T06:54:10.779Z,92.93
2023-01-17T06:55:10.769Z,93.14
2023-01-17T06:56:10.753Z,93.18
2023-01-17T06:57:10.743Z,93.35
2023-01-17T06:58:10.764Z,93.35
2023-01-17T06:59:10.743Z,93.35
2023-01-17T07:00:10.711Z,93.66
2023-01-17T07:01:10.835Z,93.66
2023-01-17T07:02:10.680Z,93.66
2023-01-17T07:03:10.684Z,93.56
2023-01-17T07:04:10.703Z,93.35
2023-01-17T07:05:10.660Z,93.41
2023-01-17T07:06:10.630Z,93.56
2023-01-17T07:07:10.618Z,93.56
2023-01-17T07:08:10.624Z,93.41
2023-01-17T07:09:10.589Z,93.41
2023-01-17T07:10:10.578Z,93.41
2023-01-17T07:11:10.569Z,93.41
2023-01-17T07:12:10.559Z,93.41
2023-01-17T07:13:10.554Z,93.31
2023-01-17T07:14:10.541Z,93.73
2023-01-17T07:15:10.550Z,93.73
2023-01-17T07:16:10.518Z,93.73
2023-01-17T07:17:10.498Z,93.83
2023-01-17T07:18:10.481Z,93.73
2023-01-17T07:19:10.481Z,93.73
2023-01-17T07:20:10.460Z,93.83
2023-01-17T07:21:10.458Z,93.73
2023-01-17T07:22:10.427Z,93.62
2023-01-17T07:23:10.418Z,93.52
2023-01-17T07:24:10.427Z,93.41
2023-01-17T07:25:10.383Z,93.41
2023-01-17T07:26:10.375Z,93.66
2023-01-17T07:27:10.362Z,93.87
2023-01-17T07:28:10.356Z,93.98
2023-01-17T07:29:10.354Z,94.18
2023-01-17T07:30:10.325Z,94.39
2023-01-17T07:31:10.393Z,94.60
2023-01-17T07:32:10.309Z,94.64
2023-01-17T07:33:10.288Z,94.85
2023-01-17T07:34:10.295Z,94.96
2023-01-17T07:35:10.263Z,95.17
2023-01-17T07:36:10.250Z,95.37
2023-01-17T07:37:10.238Z,95.58
2023-01-17T07:38:10.225Z,95.73
2023-01-17T07:39:10.229Z,95.94
2023-01-17T07:40:10.199Z,95.94
2023-01-17T07:41:11.120Z,95.83
2023-01-17T07:42:10.181Z,95.62
2023-01-17T07:43:10.161Z,95.94
2023-01-17T07:44:10.272Z,96.46
2023-01-17T07:45:10.129Z,96.67
2023-01-17T07:46:10.124Z,96.77
2023-01-17T07:47:10.138Z,96.67
2023-01-17T07:48:10.103Z,96.42
2023-01-17T07:49:10.102Z,96.11
2023-01-17T07:50:10.112Z,96.00
2023-01-17T07:51:10.059Z,95.79
2023-01-17T07:52:10.045Z,95.68
2023-01-17T07:53:10.062Z,95.48
2023-01-17T07:54:10.042Z,95.58
2023-01-17T07:55:10.007Z,95.33
2023-01-17T07:56:09.992Z,95.23
2023-01-17T07:57:09.981Z,95.37
2023-01-17T07:58:09.981Z,95.33
2023-01-17T07:59:09.969Z,95.27
2023-01-17T08:00:09.947Z,95.23
2023-01-17T08:01:10.145Z,95.06
2023-01-17T08:02:09.948Z,95.02
2023-01-17T08:03:09.922Z,95.12
2023-01-17T08:04:09.953Z,95.58
2023-01-17T08:05:09.878Z,95.58
2023-01-17T08:06:09.870Z,95.68
2023-01-17T08:07:09.851Z,95.89
2023-01-17T08:08:09.839Z,96.25
2023-01-17T08:09:09.851Z,96.67
2023-01-17T08:10:09.813Z,96.77
2023-01-17T08:11:09.803Z,96.92
2023-01-17T08:12:09.791Z,97.13
2023-01-17T08:13:09.776Z,97.44
2023-01-17T08:14:09.781Z,97.61
2023-01-17T08:15:09.749Z,97.50
2023-01-17T08:16:09.745Z,97.14
2023-01-17T08:17:09.723Z,96.94
2023-01-17T08:18:09.712Z,96.83
2023-01-17T08:19:09.739Z,96.37
2023-01-17T08:20:09.689Z,96.16
2023-01-17T08:21:09.675Z,95.95
2023-01-17T08:22:09.663Z,95.85
2023-01-17T08:23:09.657Z,95.75
2023-01-17T08:24:09.669Z,95.50
2023-01-17T08:25:09.623Z,95.50
2023-01-17T08:26:09.613Z,95.29
2023-01-17T08:27:09.599Z,95.08
2023-01-17T08:28:09.585Z,94.72
2023-01-17T08:29:09.583Z,94.31
2023-01-17T08:30:09.601Z,93.89
2023-01-17T08:31:09.569Z,93.74
2023-01-17T08:32:09.544Z,92.47
2023-01-17T08:33:09.526Z,89.61
2023-01-17T08:34:09.550Z,86.33
2023-01-17T08:35:09.555Z,83.36
2023-01-17T08:36:09.488Z,82.01
2023-01-17T08:37:09.471Z,80.98
2023-01-17T08:38:09.458Z,81.25
2023-01-17T08:39:09.456Z,79.38
2023-01-17T08:40:09.451Z,76.25
2023-01-17T08:41:09.419Z,73.61
2023-01-17T08:42:09.404Z,71.96
2023-01-17T08:43:09.399Z,70.04
2023-01-17T08:44:09.386Z,68.44
2023-01-17T08:45:09.395Z,67.25
2023-01-17T08:46:09.396Z,66.63
2023-01-17T08:47:09.339Z,65.37
2023-01-17T08:48:09.327Z,65.31
2023-01-17T08:49:09.320Z,63.21
2023-01-17T08:50:09.318Z,61.79
2023-01-17T08:51:09.328Z,60.33
2023-01-17T08:52:09.281Z,59.92
2023-01-17T08:53:09.262Z,59.49
2023-01-17T08:54:09.259Z,59.00
2023-01-17T08:55:09.251Z,59.28
2023-01-17T08:56:09.226Z,58.01
2023-01-17T08:57:09.219Z,57.26
2023-01-17T08:58:09.197Z,56.76
2023-01-17T08:59:09.193Z,58.50
2023-01-17T09:00:09.221Z,59.57
2023-01-17T09:01:09.375Z,59.62
2023-01-17T09:02:09.285Z,58.87
2023-01-17T09:03:09.132Z,58.51
2023-01-17T09:04:09.265Z,57.26
2023-01-17T09:05:09.132Z,55.81
2023-01-17T09:06:09.105Z,58.45
2023-01-17T09:07:09.106Z,59.62
2023-01-17T09:08:09.092Z,59.34
2023-01-17T09:09:09.059Z,61.16
2023-01-17T09:10:09.053Z,62.27
2023-01-17T09:11:09.033Z,63.26
2023-01-17T09:12:09.030Z,62.83
2023-01-17T09:13:09.017Z,62.70
2023-01-17T09:14:08.990Z,61.98
2023-01-17T09:15:08.987Z,62.45
2023-01-17T09:16:08.966Z,62.18
2023-01-17T09:17:08.948Z,60.85
2023-01-17T09:18:08.936Z,60.72
2023-01-17T09:19:08.937Z,61.31
2023-01-17T09:20:08.929Z,60.90
2023-01-17T09:21:08.902Z,60.57
2023-01-17T09:22:08.888Z,59.89
2023-01-17T09:23:08.896Z,58.95
2023-01-17T09:24:08.863Z,58.91
2023-01-17T09:25:08.861Z,60.78
2023-01-17T09:26:08.840Z,62.92
2023-01-17T09:27:08.887Z,65.03
2023-01-17T09:28:08.811Z,65.57
2023-01-17T09:29:08.796Z,65.77
2023-01-17T09:30:08.806Z,65.77
2023-01-17T09:31:08.876Z,64.62
2023-01-17T09:32:08.762Z,62.49
2023-01-17T09:33:08.744Z,60.87
2023-01-17T09:34:08.738Z,60.72
2023-01-17T09:35:08.745Z,61.47
2023-01-17T09:36:08.705Z,61.80
2023-01-17T09:37:08.695Z,62.08
2023-01-17T09:38:08.677Z,61.47
2023-01-17T09:39:08.688Z,61.21
2023-01-17T09:40:08.677Z,59.92
2023-01-17T09:41:08.641Z,58.21
2023-01-17T09:42:08.632Z,56.58
2023-01-17T09:43:08.612Z,57.09
2023-01-17T09:44:08.606Z,55.91
2023-01-17T09:45:08.593Z,55.22
2023-01-17T09:46:08.685Z,53.67
2023-01-17T09:47:08.628Z,52.56
2023-01-17T09:48:08.550Z,53.90
2023-01-17T09:49:08.581Z,54.92
2023-01-17T09:50:08.565Z,57.17
2023-01-17T09:51:08.554Z,58.86
2023-01-17T09:52:08.536Z,58.98
2023-01-17T09:53:08.497Z,59.57
2023-01-17T09:54:08.481Z,57.98
2023-01-17T09:55:08.478Z,57.42
2023-01-17T09:56:08.487Z,56.15
2023-01-17T09:57:08.436Z,54.97
2023-01-17T09:58:08.422Z,56.20
2023-01-17T09:59:08.432Z,56.53
2023-01-17T10:00:08.405Z,56.99
2023-01-17T10:01:08.685Z,57.34
2023-01-17T10:02:08.544Z,56.37
2023-01-17T10:03:08.500Z,55.91
2023-01-17T10:04:08.485Z,53.90
2023-01-17T10:05:08.469Z,53.63
2023-01-17T10:06:08.341Z,55.58
2023-01-17T10:07:08.308Z,56.66
2023-01-17T10:08:08.293Z,57.37
2023-01-17T10:09:08.303Z,57.97
2023-01-17T10:10:08.283Z,59.42
2023-01-17T10:11:08.299Z,59.42
2023-01-17T10:12:08.246Z,59.99
2023-01-17T10:13:08.231Z,61.58
2023-01-17T10:14:08.230Z,61.63
2023-01-17T10:15:08.217Z,59.94
2023-01-17T10:16:08.212Z,59.19
2023-01-17T10:17:08.184Z,59.12
2023-01-17T10:18:08.170Z,60.35
2023-01-17T10:19:08.164Z,58.25
2023-01-17T10:20:08.144Z,57.73
2023-01-17T10:21:08.149Z,58.94
2023-01-17T10:22:08.121Z,59.83
2023-01-17T10:23:08.139Z,58.98
2023-01-17T10:24:08.097Z,58.78
2023-01-17T10:25:08.087Z,58.48
2023-01-17T10:26:08.092Z,56.56
2023-01-17T10:27:08.112Z,55.36
2023-01-17T10:28:08.049Z,57.51
2023-01-17T10:29:08.036Z,58.15
2023-01-17T10:30:08.029Z,59.45
2023-01-17T10:31:08.021Z,59.14
2023-01-17T10:32:07.988Z,58.27
2023-01-17T10:33:07.979Z,57.43
2023-01-17T10:34:07.968Z,57.99
2023-01-17T10:35:07.956Z,58.43
2023-01-17T10:36:07.960Z,59.07
2023-01-17T10:37:07.935Z,59.46
2023-01-17T10:38:07.919Z,61.87
2023-01-17T10:39:07.908Z,61.27
2023-01-17T10:40:07.887Z,59.04
2023-01-17T10:41:07.960Z,58.33
2023-01-17T10:42:07.869Z,57.35
2023-01-17T10:43:07.876Z,57.61
2023-01-17T10:44:07.843Z,59.07
2023-01-17T10:45:07.836Z,58.09
2023-01-17T10:46:07.870Z,57.32
2023-01-17T10:47:07.801Z,55.61
2023-01-17T10:48:07.790Z,55.79
2023-01-17T10:49:07.780Z,54.51
2023-01-17T10:50:07.762Z,54.97
2023-01-17T10:51:07.765Z,55.30
2023-01-17T10:52:07.737Z,56.20
2023-01-17T10:53:07.729Z,59.08
2023-01-17T10:54:07.737Z,59.38
2023-01-17T10:55:07.708Z,60.28
2023-01-17T10:56:07.704Z,60.15
2023-01-17T10:57:07.675Z,59.74
2023-01-17T10:58:07.661Z,59.07
2023-01-17T10:59:07.678Z,57.61
2023-01-17T11:00:07.641Z,58.07
2023-01-17T11:01:07.733Z,57.20
2023-01-17T11:02:07.747Z,57.43
2023-01-17T11:03:07.653Z,56.61
2023-01-17T11:04:07.580Z,55.74
2023-01-17T11:05:07.574Z,54.51
2023-01-17T11:06:07.562Z,52.96
2023-01-17T11:07:07.562Z,51.64
2023-01-17T11:08:07.533Z,53.36
2023-01-17T11:09:07.524Z,54.08
2023-01-17T11:10:07.512Z,53.36
2023-01-17T11:11:07.511Z,53.34
2023-01-17T11:12:07.505Z,53.29
2023-01-17T11:13:07.469Z,54.13
2023-01-17T11:14:07.456Z,53.49
2023-01-17T11:15:07.468Z,54.03
2023-01-17T11:16:07.505Z,54.54
2023-01-17T11:17:07.441Z,54.13
2023-01-17T11:18:07.411Z,52.12
2023-01-17T11:19:07.395Z,51.89
2023-01-17T11:20:07.380Z,52.65
2023-01-17T11:21:07.367Z,52.34
2023-01-17T11:22:07.372Z,53.75
2023-01-17T11:23:07.343Z,53.08
2023-01-17T11:24:07.326Z,53.34
2023-01-17T11:25:07.316Z,51.45
2023-01-17T11:26:07.304Z,50.71
2023-01-17T11:27:07.312Z,49.69
2023-01-17T11:28:07.289Z,51.55
2023-01-17T11:29:07.269Z,52.37
2023-01-17T11:30:07.253Z,53.83
2023-01-17T11:31:07.398Z,54.18
2023-01-17T11:32:07.243Z,55.38
2023-01-17T11:33:07.225Z,58.44
2023-01-17T11:34:07.199Z,60.99
2023-01-17T11:35:07.202Z,62.63
2023-01-17T11:36:07.177Z,61.96
2023-01-17T11:37:07.178Z,58.39
2023-01-17T11:38:07.158Z,56.87
2023-01-17T11:39:07.147Z,54.82
2023-01-17T11:40:07.123Z,53.54
2023-01-17T11:41:07.110Z,54.25
2023-01-17T11:42:07.115Z,54.16
2023-01-17T11:43:07.084Z,54.92
2023-01-17T11:44:07.076Z,55.64
2023-01-17T11:45:07.063Z,56.00
2023-01-17T11:46:07.165Z,55.26
2023-01-17T11:47:07.077Z,54.31
2023-01-17T11:48:07.023Z,51.50
2023-01-17T11:49:07.011Z,50.16
2023-01-17T11:50:06.994Z,50.39
2023-01-17T11:51:06.990Z,51.50
2023-01-17T11:52:06.990Z,48.17
2023-01-17T11:53:06.963Z,48.33
2023-01-17T11:54:06.944Z,48.33
2023-01-17T11:55:06.933Z,47.47
2023-01-17T11:56:06.914Z,47.04
2023-01-17T11:57:06.917Z,45.84
2023-01-17T11:58:06.892Z,44.53
2023-01-17T11:59:06.882Z,45.18
2023-01-17T12:00:06.866Z,46.66
2023-01-17T12:01:06.904Z,48.22
2023-01-17T12:02:07.171Z,47.19
2023-01-17T12:03:06.847Z,45.33
2023-01-17T12:04:06.859Z,43.91
2023-01-17T12:05:06.877Z,43.84
2023-01-17T12:06:06.805Z,44.78
2023-01-17T12:07:06.777Z,47.08
2023-01-17T12:08:06.777Z,48.18
2023-01-17T12:09:06.752Z,48.24
2023-01-17T12:10:06.738Z,47.93
2023-01-17T12:11:06.728Z,47.93
2023-01-17T12:12:06.710Z,48.14
2023-01-17T12:13:06.713Z,48.93
2023-01-17T12:14:06.685Z,49.39
2023-01-17T12:15:06.693Z,50.31
2023-01-17T12:16:06.698Z,50.10
2023-01-17T12:17:06.680Z,50.23
2023-01-17T12:18:06.648Z,50.15
2023-01-17T12:19:06.648Z,51.10
2023-01-17T12:20:06.623Z,51.51
2023-01-17T12:21:06.594Z,52.39
2023-01-17T12:22:06.583Z,50.10
2023-01-17T12:23:06.597Z,49.08
2023-01-17T12:24:06.553Z,49.34
2023-01-17T12:25:06.544Z,48.68
2023-01-17T12:26:06.526Z,47.53
2023-01-17T12:27:06.519Z,45.78
2023-01-17T12:28:06.533Z,46.66
2023-01-17T12:29:06.489Z,48.16
2023-01-17T12:30:06.474Z,49.18
2023-01-17T12:31:06.471Z,49.47
2023-01-17T12:32:06.454Z,49.47
2023-01-17T12:33:06.451Z,49.16
2023-01-17T12:34:07.985Z,48.32
2023-01-17T12:35:06.435Z,48.44
2023-01-17T12:36:06.395Z,48.55
2023-01-17T12:37:06.384Z,48.14
2023-01-17T12:38:06.394Z,48.55
2023-01-17T12:39:06.353Z,48.75
2023-01-17T12:40:06.353Z,48.75
2023-01-17T12:41:06.330Z,49.96
2023-01-17T12:42:06.320Z,49.63
2023-01-17T12:43:06.325Z,50.72
2023-01-17T12:44:06.298Z,52.69
2023-01-17T12:45:06.307Z,54.72
2023-01-17T12:46:06.264Z,55.93
2023-01-17T12:47:06.252Z,56.08
2023-01-17T12:48:06.251Z,56.29
2023-01-17T12:49:06.225Z,56.67
2023-01-17T12:50:06.210Z,55.85
2023-01-17T12:51:06.233Z,56.90
2023-01-17T12:52:06.186Z,57.24